createdAt,value
2022-11-16T00:14:31.804Z,11.4
2022-11-16T00:29:31.811Z,11.4
2022-11-16T00:44:31.778Z,11.4
2022-11-16T00:59:31.778Z,11.2
2022-11-16T01:14:31.738Z,11.3
2022-11-16T01:29:31.755Z,11.3
2022-11-16T01:44:31.747Z,11.3
2022-11-16T01:59:31.712Z,11.1
2022-11-16T02:14:31.712Z,11
2022-11-16T02:29:31.679Z,11
2022-11-16T02:44:31.790Z,10.8
2022-11-16T02:59:31.665Z,10.6
2022-11-16T03:14:31.631Z,10.6
2022-11-16T03:29:31.610Z,10.5
2022-11-16T03:44:31.566Z,10.5
2022-11-16T03:59:31.584Z,10.5
2022-11-16T04:14:31.540Z,10.5
2022-11-16T04:29:31.559Z,10.2
2022-11-16T04:44:31.512Z,10
2022-11-16T04:59:31.508Z,9.8
2022-11-16T05:14:31.477Z,9.9
2022-11-16T05:29:31.492Z,9.8
2022-11-16T05:44:31.446Z,9.8
2022-11-16T05:59:31.454Z,9.6
2022-11-16T06:14:31.423Z,9.3
2022-11-16T06:29:31.387Z,9.1
2022-11-16T06:44:31.389Z,9.1
2022-11-16T06:59:31.353Z,9.1
2022-11-16T07:14:31.373Z,9.1
2022-11-16T07:29:31.332Z,9.3
2022-11-16T07:44:31.308Z,9.4
2022-11-16T07:59:31.314Z,9.8
2022-11-16T08:14:31.284Z,10.2
2022-11-16T08:44:31.252Z,9.6
2022-11-16T08:59:31.259Z,9.8
2022-11-16T09:14:31.219Z,10.7
2022-11-16T09:29:31.237Z,11.2
2022-11-16T09:44:31.193Z,13.5
2022-11-16T09:59:31.200Z,15.3
2022-11-16T10:14:31.168Z,15.5
2022-11-16T10:29:31.170Z,16.4
2022-11-16T10:59:31.103Z,17.7
2022-11-16T11:14:31.067Z,17
2022-11-16T11:29:31.070Z,15.3
2022-11-16T11:44:31.003Z,14.1
2022-11-16T11:59:31.020Z,13.9
2022-11-16T12:14:30.953Z,13.8
2022-11-16T12:29:30.978Z,13.9
2022-11-16T12:44:30.906Z,14.4
2022-11-16T12:59:30.941Z,14.6
2022-11-16T13:14:30.870Z,14.9
2022-11-16T13:29:30.896Z,14.8
2022-11-16T13:44:30.837Z,14.9
2022-11-16T13:59:30.845Z,15
2022-11-16T14:14:30.790Z,14.9
2022-11-16T14:29:30.800Z,15.1
2022-11-16T14:44:30.744Z,15
2022-11-16T14:59:30.764Z,14.7
2022-11-16T15:14:30.723Z,14.2
2022-11-16T15:29:30.718Z,13.8
2022-11-16T15:44:30.688Z,13.4
2022-11-16T15:59:30.662Z,13.2
2022-11-16T16:14:30.621Z,12.9
2022-11-16T16:29:30.639Z,12.3
2022-11-16T16:44:30.618Z,11.7
2022-11-16T16:59:30.603Z,11.4
2022-11-16T17:14:30.543Z,11.3
2022-11-16T17:29:30.580Z,10.9
2022-11-16T17:44:30.509Z,10.6
2022-11-16T17:59:30.518Z,10.1
2022-11-16T18:14:30.478Z,9.8
2022-11-16T18:29:30.493Z,9.9
2022-11-16T18:44:30.421Z,9.7
2022-11-16T18:59:30.444Z,9.8
2022-11-16T19:14:30.391Z,9.7
2022-11-16T19:29:30.423Z,9.5
2022-11-16T19:44:30.376Z,8.9
2022-11-16T19:59:30.379Z,8.5
2022-11-16T20:14:30.388Z,8.9
2022-11-16T20:29:30.328Z,9.1
2022-11-16T20:44:30.305Z,9.3
2022-11-16T20:59:30.287Z,9.5
2022-11-16T21:14:30.270Z,9.5
2022-11-16T21:29:30.257Z,9.4
2022-11-16T21:44:30.255Z,9.5
2022-11-16T21:59:30.229Z,9.5
2022-11-16T22:14:30.199Z,9.2
2022-11-16T22:29:30.221Z,9.2
2022-11-16T22:44:30.180Z,9.1
2022-11-16T22:59:30.192Z,8.8
2022-11-16T23:14:30.133Z,8.6
2022-11-16T23:29:30.147Z,8.6
2022-11-16T23:44:30.117Z,8.9
2022-11-16T23:59:30.134Z,9
